Private Wetterstation Sandau
Wetterdaten: Woche 25.06.12 - 01.07.12 (KW26)
Datum Zeit Temp. A. Feuchte A. Luftdruck Regen Wind Richtung Taupunkt Windchill
25.06.2012 00:00 14,2 C 79 % 1006,8 hPa 0,0 l/m 17,0 km/h (3 Bft) W-SW 10,5 C 14,2 C
25.06.2012 01:00 13,9 C 78 % 1007,4 hPa 0,0 l/m 17,4 km/h (3 Bft) W-NW 10,1 C 13,9 C
25.06.2012 02:00 13,6 C 80 % 1008,2 hPa 0,0 l/m 15,5 km/h (3 Bft) W-NW 10,2 C 13,6 C
25.06.2012 03:00 12,9 C 83 % 1008,8 hPa 1,6 l/m 14,4 km/h (3 Bft) W 10,2 C 12,9 C
25.06.2012 04:00 12,5 C 85 % 1009,5 hPa 0,0 l/m 7,9 km/h (2 Bft) W 10,0 C 12,5 C
25.06.2012 05:00 12,4 C 84 % 1009,8 hPa 0,0 l/m 12,2 km/h (2 Bft) W-SW 9,7 C 12,4 C
25.06.2012 06:00 12,5 C 81 % 1009,7 hPa 0,0 l/m 13,7 km/h (3 Bft) W 9,3 C 12,5 C
25.06.2012 07:00 13,1 C 80 % 1010,0 hPa 0,0 l/m 12,7 km/h (3 Bft) W-SW 9,7 C 13,1 C
25.06.2012 08:00 14,0 C 78 % 1010,0 hPa 0,0 l/m 14,4 km/h (3 Bft) W-SW 10,3 C 14,0 C
25.06.2012 09:00 14,5 C 77 % 1010,1 hPa 0,0 l/m 16,8 km/h (3 Bft) W-SW 10,6 C 14,5 C
25.06.2012 10:00 16,1 C 72 % 1009,9 hPa 0,0 l/m 16,1 km/h (3 Bft) W-SW 11,1 C 16,1 C
25.06.2012 11:00 17,1 C 67 % 1009,8 hPa 0,0 l/m 12,6 km/h (3 Bft) W-NW 11,0 C 17,1 C
25.06.2012 12:00 17,7 C 67 % 1009,5 hPa 0,0 l/m 14,3 km/h (3 Bft) W 11,5 C 17,7 C
25.06.2012 13:00 18,7 C 62 % 1009,1 hPa 1,0 l/m 20,4 km/h (4 Bft) W-SW 11,3 C 18,7 C
25.06.2012 14:00 15,2 C 76 % 1010,2 hPa 1,6 l/m 16,3 km/h (3 Bft) W 11,0 C 15,2 C
25.06.2012 15:00 15,0 C 80 % 1010,1 hPa 0,0 l/m 15,8 km/h (3 Bft) W-SW 11,5 C 15,0 C
25.06.2012 16:00 16,5 C 73 % 1009,8 hPa 0,0 l/m 17,6 km/h (3 Bft) SW 11,6 C 16,5 C
25.06.2012 17:00 16,1 C 73 % 1009,8 hPa 0,5 l/m 16,5 km/h (3 Bft) W-NW 11,2 C 16,1 C
25.06.2012 18:00 15,7 C 75 % 1010,0 hPa 0,0 l/m 18,2 km/h (3 Bft) W-NW 11,3 C 15,7 C
25.06.2012 19:00 16,3 C 70 % 1010,5 hPa 0,0 l/m 16,8 km/h (3 Bft) W 10,9 C 16,3 C
25.06.2012 20:00 15,1 C 73 % 1011,3 hPa 0,0 l/m 19,0 km/h (3 Bft) W 10,4 C 15,1 C
25.06.2012 21:00 14,5 C 76 % 1012,0 hPa 0,0 l/m 23,2 km/h (4 Bft) W 10,3 C 14,5 C
25.06.2012 22:00 14,1 C 76 % 1012,8 hPa 0,0 l/m 18,4 km/h (3 Bft) W-NW 10,0 C 14,1 C
25.06.2012 23:00 13,9 C 78 % 1013,2 hPa 0,0 l/m 17,9 km/h (3 Bft) W 10,1 C 13,9 C
26.06.2012 00:00 13,8 C 77 % 1013,6 hPa 0,0 l/m 18,8 km/h (3 Bft) W 9,9 C 13,8 C
26.06.2012 01:00 13,8 C 78 % 1013,8 hPa 0,0 l/m 18,4 km/h (3 Bft) W-NW 10,0 C 13,8 C
26.06.2012 02:00 13,8 C 76 % 1013,9 hPa 0,0 l/m 14,1 km/h (3 Bft) W-NW 9,7 C 13,8 C
26.06.2012 03:00 13,6 C 76 % 1014,1 hPa 0,0 l/m 11,8 km/h (2 Bft) W-NW 9,5 C 13,6 C
26.06.2012 04:00 13,5 C 77 % 1014,7 hPa 0,0 l/m 15,0 km/h (3 Bft) W-NW 9,5 C 13,5 C
26.06.2012 05:00 13,4 C 76 % 1015,3 hPa 0,0 l/m 17,9 km/h (3 Bft) W 9,2 C 13,4 C
26.06.2012 06:00 13,3 C 75 % 1015,9 hPa 0,0 l/m 14,1 km/h (3 Bft) W-NW 9,0 C 13,3 C
26.06.2012 07:00 13,4 C 75 % 1016,4 hPa 0,0 l/m 9,9 km/h (2 Bft) W 9,0 C 13,4 C
26.06.2012 08:00 13,6 C 74 % 1016,9 hPa 0,0 l/m 13,0 km/h (3 Bft) W 9,1 C 13,6 C
26.06.2012 09:00 13,8 C 74 % 1017,3 hPa 0,0 l/m 12,8 km/h (3 Bft) NW 9,2 C 13,8 C
26.06.2012 10:00 14,4 C 73 % 1017,5 hPa 0,0 l/m 14,0 km/h (3 Bft) W-NW 9,6 C 14,4 C
26.06.2012 11:00 14,8 C 73 % 1017,9 hPa 0,0 l/m 14,1 km/h (3 Bft) W-NW 10,0 C 14,8 C
26.06.2012 12:00 15,9 C 70 % 1018,2 hPa 0,0 l/m 19,9 km/h (4 Bft) W-NW 10,4 C 15,9 C
26.06.2012 13:00 16,3 C 67 % 1018,5 hPa 0,0 l/m 17,4 km/h (3 Bft) W 10,0 C 16,3 C
26.06.2012 14:00 16,1 C 66 % 1019,0 hPa 0,0 l/m 17,8 km/h (3 Bft) W-NW 9,7 C 16,1 C
26.06.2012 15:00 16,3 C 65 % 1019,2 hPa 0,0 l/m 15,9 km/h (3 Bft) W-NW 9,8 C 16,3 C
26.06.2012 16:00 16,7 C 64 % 1019,3 hPa 0,0 l/m 10,9 km/h (2 Bft) W 10,0 C 16,7 C
26.06.2012 17:00 16,6 C 64 % 1019,5 hPa 0,0 l/m 14,9 km/h (3 Bft) W 9,7 C 16,6 C
26.06.2012 18:00 17,1 C 63 % 1019,4 hPa 0,0 l/m 17,9 km/h (3 Bft) W 9,9 C 17,1 C
26.06.2012 19:00 17,0 C 61 % 1019,5 hPa 0,0 l/m 15,3 km/h (3 Bft) W-NW 9,4 C 17,0 C
26.06.2012 20:00 16,2 C 65 % 1019,6 hPa 0,0 l/m 11,8 km/h (2 Bft) W-NW 9,5 C 16,2 C
26.06.2012 21:00 15,0 C 67 % 1019,8 hPa 0,0 l/m 7,9 km/h (2 Bft) W 8,9 C 15,0 C
26.06.2012 22:00 13,8 C 71 % 1020,1 hPa 0,0 l/m 8,5 km/h (2 Bft) W-NW 8,6 C 13,8 C
26.06.2012 23:00 13,1 C 74 % 1019,9 hPa 0,0 l/m 5,6 km/h (1 Bft) W 8,5 C 13,1 C
27.06.2012 00:00 12,4 C 76 % 1019,9 hPa 0,0 l/m 3,9 km/h (1 Bft) W-SW 8,2 C 12,4 C
27.06.2012 01:00 11,7 C 78 % 1020,1 hPa 0,0 l/m 5,0 km/h (1 Bft) W-SW 8,0 C 11,7 C
27.06.2012 02:00 11,1 C 80 % 1019,9 hPa 0,0 l/m 3,3 km/h (1 Bft) W-SW 7,8 C 11,1 C
27.06.2012 03:00 10,8 C 82 % 1019,7 hPa 0,0 l/m 5,5 km/h (1 Bft) W-SW 7,7 C 10,8 C
27.06.2012 04:00 10,4 C 83 % 1019,5 hPa 0,0 l/m 6,7 km/h (2 Bft) W-SW 7,6 C 10,4 C
27.06.2012 05:00 10,4 C 84 % 1019,2 hPa 0,0 l/m 7,0 km/h (2 Bft) W 7,9 C 10,4 C
27.06.2012 06:00 12,1 C 81 % 1019,1 hPa 0,0 l/m 6,5 km/h (2 Bft) W 8,9 C 12,1 C
27.06.2012 07:00 12,6 C 80 % 1019,3 hPa 0,0 l/m 3,9 km/h (1 Bft) W-SW 9,2 C 12,6 C
27.06.2012 08:00 13,5 C 79 % 1019,2 hPa 0,0 l/m 5,7 km/h (1 Bft) W 9,8 C 13,5 C
27.06.2012 09:00 14,8 C 76 % 1019,0 hPa 0,0 l/m 5,2 km/h (1 Bft) W-SW 10,7 C 14,8 C
27.06.2012 10:00 16,3 C 72 % 1018,8 hPa 0,0 l/m 7,1 km/h (2 Bft) W 11,3 C 16,3 C
27.06.2012 11:00 16,9 C 70 % 1018,6 hPa 0,0 l/m 8,5 km/h (2 Bft) W-SW 11,4 C 16,9 C
27.06.2012 12:00 16,4 C 74 % 1018,3 hPa 0,0 l/m 6,8 km/h (2 Bft) W 11,7 C 16,4 C
27.06.2012 13:00 16,2 C 77 % 1018,0 hPa 0,0 l/m 6,2 km/h (2 Bft) SW 12,2 C 16,2 C
27.06.2012 14:00 16,3 C 80 % 1017,4 hPa 0,0 l/m 4,6 km/h (1 Bft) SW 12,9 C 16,3 C
27.06.2012 15:00 15,9 C 83 % 1017,2 hPa 1,0 l/m 3,0 km/h (1 Bft) S-SW 13,0 C 15,9 C
27.06.2012 16:00 15,6 C 85 % 1016,7 hPa 1,0 l/m 1,3 km/h (1 Bft) S-SO 13,0 C 15,6 C
27.06.2012 17:00 15,6 C 86 % 1016,1 hPa 0,5 l/m 1,0 km/h (0 Bft) SO 13,2 C 15,6 C
27.06.2012 18:00 15,6 C 87 % 1015,7 hPa 0,0 l/m 0,2 km/h (0 Bft) O-SO 13,4 C 15,6 C
27.06.2012 19:00 15,5 C 87 % 1015,5 hPa 0,0 l/m 0,0 km/h (0 Bft) N 13,4 C 15,5 C
27.06.2012 20:00 15,6 C 87 % 1015,4 hPa 0,0 l/m 0,0 km/h (0 Bft) N 13,4 C 15,6 C
27.06.2012 21:00 15,6 C 87 % 1015,2 hPa 0,0 l/m 0,0 km/h (0 Bft) S 13,4 C 15,6 C
27.06.2012 22:00 15,5 C 88 % 1015,1 hPa 0,0 l/m 0,7 km/h (0 Bft) S-SO 13,5 C 15,5 C
27.06.2012 23:00 15,4 C 89 % 1014,7 hPa 0,0 l/m 1,4 km/h (1 Bft) S 13,6 C 15,4 C
28.06.2012 00:00 15,4 C 89 % 1014,5 hPa 0,0 l/m 1,0 km/h (0 Bft) S-SO 13,6 C 15,4 C
28.06.2012 01:00 15,4 C 90 % 1014,3 hPa 0,0 l/m 0,2 km/h (0 Bft) S 13,8 C 15,4 C
28.06.2012 02:00 15,5 C 90 % 1014,1 hPa 0,0 l/m 1,9 km/h (1 Bft) W-SW 13,9 C 15,5 C
28.06.2012 03:00 15,7 C 90 % 1013,9 hPa 0,0 l/m 4,5 km/h (1 Bft) W 14,1 C 15,7 C
28.06.2012 04:00 15,9 C 90 % 1014,0 hPa 0,0 l/m 4,7 km/h (1 Bft) W-NW 14,2 C 15,9 C
28.06.2012 05:00 15,8 C 90 % 1014,0 hPa 0,0 l/m 2,4 km/h (1 Bft) W 14,2 C 15,8 C
28.06.2012 06:00 15,9 C 90 % 1014,1 hPa 0,0 l/m 3,5 km/h (1 Bft) W 14,3 C 15,9 C
28.06.2012 07:00 16,6 C 89 % 1014,1 hPa 0,0 l/m 5,1 km/h (1 Bft) W-NW 14,8 C 16,6 C
28.06.2012 08:00 17,5 C 87 % 1014,4 hPa 0,0 l/m 5,4 km/h (1 Bft) W-NW 15,3 C 17,5 C
28.06.2012 09:00 18,5 C 84 % 1014,7 hPa 0,0 l/m 3,8 km/h (1 Bft) W-NW 15,7 C 18,5 C
28.06.2012 10:00 19,5 C 79 % 1014,8 hPa 0,0 l/m 2,3 km/h (1 Bft) NW 15,8 C 19,5 C
28.06.2012 11:00 20,0 C 76 % 1014,5 hPa 0,0 l/m 1,9 km/h (1 Bft) N 15,5 C 20,0 C
28.06.2012 12:00 20,8 C 73 % 1014,4 hPa 0,0 l/m 1,4 km/h (1 Bft) S-SO 15,9 C 20,8 C
28.06.2012 13:00 22,7 C 68 % 1014,1 hPa 0,0 l/m 3,0 km/h (1 Bft) S-SW 16,5 C 22,7 C
28.06.2012 14:00 22,9 C 66 % 1013,8 hPa 0,0 l/m 2,1 km/h (1 Bft) W-NW 16,3 C 22,9 C
28.06.2012 15:00 24,6 C 60 % 1013,6 hPa 0,0 l/m 2,2 km/h (1 Bft) O-SO 16,4 C 24,6 C
28.06.2012 16:00 24,5 C 60 % 1013,2 hPa 0,0 l/m 2,8 km/h (1 Bft) O 16,1 C 24,5 C
28.06.2012 17:00 24,8 C 59 % 1012,9 hPa 0,0 l/m 4,2 km/h (1 Bft) O-NO 16,2 C 24,8 C
28.06.2012 18:00 24,1 C 61 % 1012,5 hPa 0,0 l/m 4,5 km/h (1 Bft) O-NO 16,0 C 24,1 C
28.06.2012 19:00 23,8 C 63 % 1012,0 hPa 0,0 l/m 6,4 km/h (2 Bft) O 16,3 C 23,8 C
28.06.2012 20:00 22,7 C 67 % 1011,8 hPa 0,0 l/m 6,3 km/h (2 Bft) O 16,2 C 22,7 C
28.06.2012 21:00 21,2 C 72 % 1011,7 hPa 0,0 l/m 4,5 km/h (1 Bft) O 15,9 C 21,2 C
28.06.2012 22:00 20,0 C 76 % 1012,0 hPa 0,0 l/m 3,7 km/h (1 Bft) O 15,6 C 20,0 C
28.06.2012 23:00 19,1 C 78 % 1011,9 hPa 0,0 l/m 5,0 km/h (1 Bft) O-SO 15,3 C 19,1 C
29.06.2012 00:00 18,6 C 80 % 1011,7 hPa 0,0 l/m 5,3 km/h (1 Bft) O-SO 15,0 C 18,6 C
29.06.2012 01:00 18,3 C 81 % 1011,5 hPa 0,0 l/m 4,6 km/h (1 Bft) O-SO 15,0 C 18,3 C
29.06.2012 02:00 18,0 C 82 % 1011,1 hPa 0,0 l/m 3,3 km/h (1 Bft) O 14,9 C 18,0 C
29.06.2012 03:00 17,5 C 84 % 1010,7 hPa 0,0 l/m 4,6 km/h (1 Bft) O 14,7 C 17,5 C
29.06.2012 04:00 17,3 C 85 % 1010,1 hPa 0,0 l/m 5,6 km/h (1 Bft) O-SO 14,8 C 17,3 C
29.06.2012 05:00 17,3 C 86 % 1009,9 hPa 0,0 l/m 4,2 km/h (1 Bft) O-SO 14,9 C 17,3 C
29.06.2012 06:00 18,3 C 84 % 1009,5 hPa 0,0 l/m 4,1 km/h (1 Bft) O-SO 15,5 C 18,3 C
29.06.2012 07:00 19,3 C 83 % 1009,5 hPa 0,0 l/m 4,0 km/h (1 Bft) O-SO 16,3 C 19,3 C
29.06.2012 08:00 21,9 C 76 % 1009,7 hPa 0,0 l/m 5,1 km/h (1 Bft) S-SO 17,5 C 21,9 C
29.06.2012 09:00 22,5 C 74 % 1010,1 hPa 0,0 l/m 3,9 km/h (1 Bft) S-SW 17,7 C 22,5 C
29.06.2012 10:00 22,8 C 74 % 1010,4 hPa 0,0 l/m 2,0 km/h (1 Bft) S 18,0 C 22,8 C
29.06.2012 11:00 24,1 C 71 % 1009,9 hPa 0,0 l/m 3,1 km/h (1 Bft) S-SO 18,5 C 24,1 C
29.06.2012 12:00 26,7 C 62 % 1009,9 hPa 0,0 l/m 5,8 km/h (2 Bft) S-SO 18,7 C 26,7 C
29.06.2012 13:00 28,5 C 55 % 1009,6 hPa 0,0 l/m 6,2 km/h (2 Bft) S 18,6 C 28,5 C
29.06.2012 14:00 30,2 C 49 % 1009,6 hPa 0,0 l/m 8,1 km/h (2 Bft) S-SO 18,4 C 30,2 C
29.06.2012 15:00 31,3 C 47 % 1009,1 hPa 0,0 l/m 9,1 km/h (2 Bft) S 18,6 C 31,3 C
29.06.2012 16:00 32,1 C 43 % 1008,7 hPa 0,0 l/m 9,6 km/h (2 Bft) S-SO 17,9 C 32,1 C
29.06.2012 17:00 30,1 C 46 % 1008,5 hPa 0,0 l/m 9,4 km/h (2 Bft) S 17,0 C 30,1 C
29.06.2012 18:00 28,5 C 53 % 1008,6 hPa 0,0 l/m 6,8 km/h (2 Bft) S 18,0 C 28,5 C
29.06.2012 19:00 25,9 C 62 % 1009,0 hPa 7,3 l/m 8,1 km/h (2 Bft) S-SO 18,0 C 25,9 C
29.06.2012 20:00 23,0 C 76 % 1009,0 hPa 0,0 l/m 0,2 km/h (0 Bft) NO 18,6 C 23,0 C
29.06.2012 21:00 22,3 C 80 % 1010,2 hPa 0,0 l/m 0,9 km/h (0 Bft) W 18,7 C 22,3 C
29.06.2012 22:00 21,8 C 82 % 1010,5 hPa 0,0 l/m 0,8 km/h (0 Bft) SW 18,7 C 21,8 C
29.06.2012 23:00 21,2 C 83 % 1010,5 hPa 0,0 l/m 1,5 km/h (1 Bft) SW 18,1 C 21,2 C
30.06.2012 00:00 20,7 C 84 % 1010,8 hPa 0,0 l/m 0,4 km/h (0 Bft) W-SW 17,8 C 20,7 C
30.06.2012 01:00 20,0 C 85 % 1011,0 hPa 0,5 l/m 1,9 km/h (1 Bft) W-NW 17,4 C 20,0 C
30.06.2012 02:00 19,8 C 86 % 1011,7 hPa 0,0 l/m 1,1 km/h (1 Bft) S-SO 17,5 C 19,8 C
30.06.2012 03:00 19,9 C 86 % 1012,0 hPa 0,0 l/m 1,4 km/h (1 Bft) S-SW 17,5 C 19,9 C
30.06.2012 04:00 19,5 C 86 % 1012,0 hPa 0,0 l/m 1,1 km/h (1 Bft) W-SW 17,1 C 19,5 C
30.06.2012 05:00 19,0 C 86 % 1011,9 hPa 0,0 l/m 2,6 km/h (1 Bft) W 16,7 C 19,0 C
30.06.2012 06:00 18,9 C 87 % 1012,6 hPa 0,0 l/m 5,6 km/h (1 Bft) W-SW 16,7 C 18,9 C
30.06.2012 07:00 19,6 C 86 % 1013,3 hPa 0,0 l/m 4,6 km/h (1 Bft) W-SW 17,2 C 19,6 C
30.06.2012 08:00 20,8 C 82 % 1013,8 hPa 0,0 l/m 4,2 km/h (1 Bft) W 17,6 C 20,8 C
30.06.2012 09:00 21,6 C 80 % 1014,2 hPa 0,0 l/m 6,2 km/h (2 Bft) W 17,9 C 21,6 C
30.06.2012 10:00 22,9 C 75 % 1014,5 hPa 0,0 l/m 5,3 km/h (1 Bft) W-SW 18,2 C 22,9 C
30.06.2012 11:00 24,0 C 69 % 1014,5 hPa 0,0 l/m 6,1 km/h (2 Bft) W-SW 17,9 C 24,0 C
30.06.2012 12:00 25,6 C 61 % 1014,3 hPa 0,0 l/m 6,2 km/h (2 Bft) S-SW 17,5 C 25,6 C
30.06.2012 13:00 26,5 C 54 % 1014,1 hPa 0,0 l/m 4,6 km/h (1 Bft) W-SW 16,6 C 26,5 C
30.06.2012 14:00 27,5 C 50 % 1013,9 hPa 0,0 l/m 5,8 km/h (2 Bft) W 16,0 C 27,5 C
30.06.2012 15:00 28,0 C 46 % 1013,7 hPa 0,0 l/m 5,3 km/h (1 Bft) W-NW 15,3 C 28,0 C
30.06.2012 16:00 28,8 C 43 % 1013,6 hPa 0,0 l/m 4,3 km/h (1 Bft) W 15,0 C 28,8 C
30.06.2012 17:00 28,9 C 43 % 1013,4 hPa 0,0 l/m 5,6 km/h (1 Bft) W 15,2 C 28,9 C
30.06.2012 18:00 28,4 C 45 % 1013,2 hPa 0,0 l/m 3,1 km/h (1 Bft) W-NW 15,2 C 28,4 C
30.06.2012 19:00 26,3 C 50 % 1013,2 hPa 0,0 l/m 2,0 km/h (1 Bft) NO 14,9 C 26,3 C
30.06.2012 20:00 25,3 C 53 % 1013,3 hPa 0,0 l/m 1,2 km/h (1 Bft) O-NO 15,0 C 25,3 C
30.06.2012 21:00 24,3 C 56 % 1012,8 hPa 0,0 l/m 2,0 km/h (1 Bft) O-NO 15,0 C 24,3 C
30.06.2012 22:00 23,1 C 59 % 1012,5 hPa 0,0 l/m 2,8 km/h (1 Bft) O-NO 14,6 C 23,1 C
30.06.2012 23:00 22,5 C 62 % 1012,3 hPa 0,0 l/m 1,3 km/h (1 Bft) O 14,7 C 22,5 C
01.07.2012 00:00 21,4 C 70 % 1012,0 hPa 0,0 l/m 0,7 km/h (0 Bft) O 15,6 C 21,4 C
01.07.2012 01:00 20,4 C 73 % 1011,0 hPa 0,0 l/m 3,1 km/h (1 Bft) O-NO 15,3 C 20,4 C
01.07.2012 02:00 20,2 C 73 % 1010,3 hPa 0,0 l/m 1,3 km/h (1 Bft) O-NO 15,2 C 20,2 C
01.07.2012 03:00 20,1 C 78 % 1012,3 hPa 20,2 l/m 8,5 km/h (2 Bft) S-SO 16,0 C 20,1 C
01.07.2012 04:00 19,0 C 86 % 1011,0 hPa 1,6 l/m 6,2 km/h (2 Bft) O-SO 16,5 C 19,0 C
01.07.2012 05:00 18,9 C 88 % 1011,2 hPa 0,0 l/m 1,6 km/h (1 Bft) S-SO 16,8 C 18,9 C
01.07.2012 06:00 19,7 C 86 % 1010,9 hPa 0,0 l/m 2,5 km/h (1 Bft) S-SW 17,3 C 19,7 C
01.07.2012 07:00 21,2 C 83 % 1011,9 hPa 0,0 l/m 4,7 km/h (1 Bft) SW 18,2 C 21,2 C
01.07.2012 08:00 22,2 C 80 % 1012,4 hPa 0,0 l/m 6,8 km/h (2 Bft) S-SW 18,6 C 22,2 C
01.07.2012 09:00 22,3 C 75 % 1012,8 hPa 0,0 l/m 7,6 km/h (2 Bft) W 17,8 C 22,3 C
01.07.2012 10:00 22,4 C 73 % 1013,4 hPa 0,0 l/m 8,0 km/h (2 Bft) W-NW 17,2 C 22,4 C
01.07.2012 11:00 22,5 C 69 % 1014,4 hPa 0,0 l/m 11,1 km/h (2 Bft) W 16,6 C 22,5 C
01.07.2012 12:00 22,4 C 68 % 1015,4 hPa 0,0 l/m 12,0 km/h (2 Bft) W-SW 16,1 C 22,4 C
01.07.2012 13:00 22,7 C 65 % 1016,3 hPa 0,0 l/m 11,9 km/h (2 Bft) W 15,9 C 22,7 C
01.07.2012 14:00 23,6 C 61 % 1016,0 hPa 0,0 l/m 8,1 km/h (2 Bft) W 15,6 C 23,6 C
01.07.2012 15:00 24,7 C 55 % 1015,8 hPa 0,0 l/m 7,5 km/h (2 Bft) W 15,0 C 24,7 C
01.07.2012 16:00 24,8 C 52 % 1016,1 hPa 0,0 l/m 8,1 km/h (2 Bft) W-SW 14,3 C 24,8 C
01.07.2012 17:00 24,5 C 53 % 1016,2 hPa 0,0 l/m 7,7 km/h (2 Bft) W 14,2 C 24,5 C
01.07.2012 18:00 23,3 C 55 % 1016,3 hPa 0,0 l/m 6,6 km/h (2 Bft) W-NW 13,7 C 23,3 C
01.07.2012 19:00 22,0 C 59 % 1016,4 hPa 0,0 l/m 3,6 km/h (1 Bft) W 13,5 C 22,0 C
01.07.2012 20:00 21,1 C 60 % 1017,0 hPa 0,0 l/m 6,3 km/h (2 Bft) W 13,0 C 21,1 C
01.07.2012 21:00 19,8 C 67 % 1017,9 hPa 0,0 l/m 4,4 km/h (1 Bft) W 13,6 C 19,8 C
01.07.2012 22:00 18,9 C 70 % 1018,5 hPa 0,0 l/m 2,7 km/h (1 Bft) W-SW 13,4 C 18,9 C
01.07.2012 23:00 17,8 C 74 % 1019,5 hPa 0,0 l/m 2,8 km/h (1 Bft) W-NW 13,0 C 17,8 C
Min-Datum _ 27.06.12 29.06.12 25.06.12 - 26.06.12 - 27.06.12 27.06.12
_ Min-Zeit 05:01 16:41 00:01 - 21:21 - 04:41 05:01
Minimum _ 10,2 C 42 % 1006,5 hPa - 0,0 km/h (0 Bft) - 7,5 C 10,2 C
Max-Datum _ 29.06.12 28.06.12 26.06.12 01.07.12 25.06.12 - 29.06.12 29.06.12
_ Max-Zeit 16:21 06:51 22:26 03:36 23:06 - 12:31 16:21
Maximum _ 32,4 C 91 % 1020,3 hPa 20,2 l/m 36,0 km/h
W (5 Bft)
- 19,1 C 32,4 C
Durchschnitt _ 18,8 C 73 % 1013,7 hPa #36,8 l/m 7,4 km/h (2 Bft) W 13,7 C 18,8 C
(c) by David Heller